sensor_id;sensor_type;location;lat;lon;timestamp;P1;durP1;ratioP1;P2;durP2;ratioP2
1751;SDS011;873;47.696;8.068;2023-02-28T00:01:22;7.57;;;5.10;;
1751;SDS011;873;47.696;8.068;2023-02-28T00:03:48;5.83;;;5.07;;
1751;SDS011;873;47.696;8.068;2023-02-28T00:06:14;6.03;;;4.17;;
1751;SDS011;873;47.696;8.068;2023-02-28T00:08:39;7.67;;;4.20;;
1751;SDS011;873;47.696;8.068;2023-02-28T00:11:07;6.37;;;5.17;;
1751;SDS011;873;47.696;8.068;2023-02-28T00:13:34;6.22;;;4.18;;
1751;SDS011;873;47.696;8.068;2023-02-28T00:16:04;7.05;;;4.82;;
1751;SDS011;873;47.696;8.068;2023-02-28T00:18:32;7.15;;;4.85;;
1751;SDS011;873;47.696;8.068;2023-02-28T00:20:58;5.50;;;4.43;;
1751;SDS011;873;47.696;8.068;2023-02-28T00:23:25;5.57;;;4.78;;
1751;SDS011;873;47.696;8.068;2023-02-28T00:25:51;8.15;;;5.07;;
1751;SDS011;873;47.696;8.068;2023-02-28T00:28:17;6.07;;;5.18;;
1751;SDS011;873;47.696;8.068;2023-02-28T00:30:44;5.55;;;4.55;;
1751;SDS011;873;47.696;8.068;2023-02-28T00:33:10;6.80;;;4.90;;
1751;SDS011;873;47.696;8.068;2023-02-28T00:35:35;5.47;;;4.63;;
1751;SDS011;873;47.696;8.068;2023-02-28T00:38:01;6.07;;;4.60;;
1751;SDS011;873;47.696;8.068;2023-02-28T00:40:27;5.53;;;4.30;;
1751;SDS011;873;47.696;8.068;2023-02-28T00:42:53;5.95;;;4.78;;
1751;SDS011;873;47.696;8.068;2023-02-28T00:45:19;6.53;;;4.73;;
1751;SDS011;873;47.696;8.068;2023-02-28T00:47:45;5.60;;;4.93;;
1751;SDS011;873;47.696;8.068;2023-02-28T00:50:12;5.53;;;4.70;;
1751;SDS011;873;47.696;8.068;2023-02-28T00:52:37;6.35;;;4.82;;
1751;SDS011;873;47.696;8.068;2023-02-28T00:55:03;7.67;;;5.60;;
1751;SDS011;873;47.696;8.068;2023-02-28T00:57:32;6.75;;;4.97;;
1751;SDS011;873;47.696;8.068;2023-02-28T00:59:57;6.63;;;5.00;;
1751;SDS011;873;47.696;8.068;2023-02-28T01:02:23;8.63;;;5.43;;
1751;SDS011;873;47.696;8.068;2023-02-28T01:04:49;9.20;;;5.23;;
1751;SDS011;873;47.696;8.068;2023-02-28T01:07:15;5.82;;;4.82;;
1751;SDS011;873;47.696;8.068;2023-02-28T01:09:41;6.20;;;4.83;;
1751;SDS011;873;47.696;8.068;2023-02-28T01:12:07;6.55;;;5.00;;
1751;SDS011;873;47.696;8.068;2023-02-28T01:14:34;7.85;;;5.00;;
1751;SDS011;873;47.696;8.068;2023-02-28T01:17:00;6.80;;;4.85;;
1751;SDS011;873;47.696;8.068;2023-02-28T01:19:26;7.47;;;5.03;;
1751;SDS011;873;47.696;8.068;2023-02-28T01:21:52;7.13;;;4.60;;
1751;SDS011;873;47.696;8.068;2023-02-28T01:24:18;6.30;;;5.10;;
1751;SDS011;873;47.696;8.068;2023-02-28T01:26:43;6.77;;;5.03;;
1751;SDS011;873;47.696;8.068;2023-02-28T01:29:09;6.37;;;4.87;;
1751;SDS011;873;47.696;8.068;2023-02-28T01:31:35;5.67;;;5.10;;
1751;SDS011;873;47.696;8.068;2023-02-28T01:34:00;6.63;;;5.07;;
1751;SDS011;873;47.696;8.068;2023-02-28T01:36:27;7.93;;;5.13;;
1751;SDS011;873;47.696;8.068;2023-02-28T01:38:52;7.37;;;5.43;;
1751;SDS011;873;47.696;8.068;2023-02-28T01:44:00;7.03;;;5.20;;
1751;SDS011;873;47.696;8.068;2023-02-28T01:46:35;8.25;;;6.03;;
1751;SDS011;873;47.696;8.068;2023-02-28T01:54:22;6.82;;;5.28;;
1751;SDS011;873;47.696;8.068;2023-02-28T01:56:53;8.02;;;5.40;;
1751;SDS011;873;47.696;8.068;2023-02-28T01:59:24;6.00;;;5.07;;
1751;SDS011;873;47.696;8.068;2023-02-28T02:01:55;6.55;;;5.35;;
1751;SDS011;873;47.696;8.068;2023-02-28T02:04:21;8.53;;;5.83;;
1751;SDS011;873;47.696;8.068;2023-02-28T02:06:49;7.82;;;5.70;;
1751;SDS011;873;47.696;8.068;2023-02-28T02:09:15;6.20;;;5.60;;
1751;SDS011;873;47.696;8.068;2023-02-28T02:11:41;5.90;;;5.30;;
1751;SDS011;873;47.696;8.068;2023-02-28T02:36:41;9.90;;;6.03;;
1751;SDS011;873;47.696;8.068;2023-02-28T02:39:17;7.05;;;5.47;;
1751;SDS011;873;47.696;8.068;2023-02-28T02:41:50;8.05;;;5.50;;
1751;SDS011;873;47.696;8.068;2023-02-28T02:44:26;7.30;;;5.65;;
1751;SDS011;873;47.696;8.068;2023-02-28T02:46:58;9.02;;;6.53;;
1751;SDS011;873;47.696;8.068;2023-02-28T02:49:30;7.30;;;6.13;;
1751;SDS011;873;47.696;8.068;2023-02-28T02:51:57;7.55;;;5.57;;
1751;SDS011;873;47.696;8.068;2023-02-28T02:54:30;10.45;;;6.28;;
1751;SDS011;873;47.696;8.068;2023-02-28T02:56:59;6.57;;;5.88;;
1751;SDS011;873;47.696;8.068;2023-02-28T02:59:28;8.38;;;6.18;;
1751;SDS011;873;47.696;8.068;2023-02-28T03:01:56;8.70;;;5.85;;
1751;SDS011;873;47.696;8.068;2023-02-28T03:04:25;9.38;;;6.70;;
1751;SDS011;873;47.696;8.068;2023-02-28T03:06:53;8.55;;;5.80;;
1751;SDS011;873;47.696;8.068;2023-02-28T03:09:20;8.25;;;5.75;;
1751;SDS011;873;47.696;8.068;2023-02-28T03:11:47;8.07;;;6.25;;
1751;SDS011;873;47.696;8.068;2023-02-28T03:17:17;9.65;;;8.70;;
1751;SDS011;873;47.696;8.068;2023-02-28T03:20:24;7.63;;;6.57;;
1751;SDS011;873;47.696;8.068;2023-02-28T03:28:15;9.38;;;6.47;;
1751;SDS011;873;47.696;8.068;2023-02-28T03:33:25;8.82;;;6.53;;
1751;SDS011;873;47.696;8.068;2023-02-28T03:35:55;9.13;;;6.18;;
1751;SDS011;873;47.696;8.068;2023-02-28T03:41:04;7.88;;;6.38;;
1751;SDS011;873;47.696;8.068;2023-02-28T03:43:33;8.82;;;6.65;;
1751;SDS011;873;47.696;8.068;2023-02-28T03:46:01;11.98;;;6.55;;
1751;SDS011;873;47.696;8.068;2023-02-28T03:48:34;8.40;;;6.15;;
1751;SDS011;873;47.696;8.068;2023-02-28T03:51:06;7.78;;;6.05;;
1751;SDS011;873;47.696;8.068;2023-02-28T03:53:35;12.43;;;6.72;;
1751;SDS011;873;47.696;8.068;2023-02-28T03:56:23;8.82;;;6.07;;
1751;SDS011;873;47.696;8.068;2023-02-28T04:01:39;8.35;;;6.05;;
1751;SDS011;873;47.696;8.068;2023-02-28T04:04:07;8.73;;;6.18;;
1751;SDS011;873;47.696;8.068;2023-02-28T04:06:34;9.38;;;7.20;;
1751;SDS011;873;47.696;8.068;2023-02-28T04:09:00;8.93;;;6.78;;
1751;SDS011;873;47.696;8.068;2023-02-28T04:11:35;9.80;;;6.78;;
1751;SDS011;873;47.696;8.068;2023-02-28T04:14:12;9.63;;;6.50;;
1751;SDS011;873;47.696;8.068;2023-02-28T04:16:39;8.83;;;6.97;;
1751;SDS011;873;47.696;8.068;2023-02-28T04:19:06;7.80;;;6.63;;
1751;SDS011;873;47.696;8.068;2023-02-28T04:21:33;9.48;;;7.13;;
1751;SDS011;873;47.696;8.068;2023-02-28T04:24:01;11.48;;;7.07;;
1751;SDS011;873;47.696;8.068;2023-02-28T04:26:28;10.90;;;7.55;;
1751;SDS011;873;47.696;8.068;2023-02-28T04:28:58;10.55;;;6.65;;
1751;SDS011;873;47.696;8.068;2023-02-28T04:31:24;10.00;;;7.40;;
1751;SDS011;873;47.696;8.068;2023-02-28T04:33:49;9.27;;;7.00;;
1751;SDS011;873;47.696;8.068;2023-02-28T04:36:15;10.20;;;7.00;;
1751;SDS011;873;47.696;8.068;2023-02-28T04:38:42;8.70;;;6.90;;
1751;SDS011;873;47.696;8.068;2023-02-28T04:41:09;10.93;;;7.45;;
1751;SDS011;873;47.696;8.068;2023-02-28T04:43:34;7.23;;;6.50;;
1751;SDS011;873;47.696;8.068;2023-02-28T04:46:02;11.23;;;7.17;;
1751;SDS011;873;47.696;8.068;2023-02-28T04:48:29;7.88;;;6.47;;
1751;SDS011;873;47.696;8.068;2023-02-28T04:50:59;8.57;;;6.80;;
1751;SDS011;873;47.696;8.068;2023-02-28T04:53:27;10.20;;;6.70;;
1751;SDS011;873;47.696;8.068;2023-02-28T04:55:54;12.25;;;6.90;;
1751;SDS011;873;47.696;8.068;2023-02-28T04:58:20;8.95;;;7.20;;
1751;SDS011;873;47.696;8.068;2023-02-28T05:00:48;8.68;;;7.03;;
1751;SDS011;873;47.696;8.068;2023-02-28T05:03:15;9.10;;;7.07;;
1751;SDS011;873;47.696;8.068;2023-02-28T05:05:41;10.03;;;6.73;;
1751;SDS011;873;47.696;8.068;2023-02-28T05:08:06;10.23;;;7.23;;
1751;SDS011;873;47.696;8.068;2023-02-28T05:10:32;8.83;;;6.90;;
1751;SDS011;873;47.696;8.068;2023-02-28T05:12:57;9.17;;;6.80;;
1751;SDS011;873;47.696;8.068;2023-02-28T05:15:23;9.03;;;6.47;;
1751;SDS011;873;47.696;8.068;2023-02-28T05:17:49;6.75;;;6.05;;
1751;SDS011;873;47.696;8.068;2023-02-28T05:20:14;9.80;;;6.83;;
1751;SDS011;873;47.696;8.068;2023-02-28T05:22:40;11.03;;;6.03;;
1751;SDS011;873;47.696;8.068;2023-02-28T05:25:06;8.18;;;6.70;;
1751;SDS011;873;47.696;8.068;2023-02-28T05:27:33;9.25;;;6.22;;
1751;SDS011;873;47.696;8.068;2023-02-28T05:29:59;10.67;;;6.80;;
1751;SDS011;873;47.696;8.068;2023-02-28T05:32:27;8.02;;;6.88;;
1751;SDS011;873;47.696;8.068;2023-02-28T05:34:53;7.63;;;6.73;;
1751;SDS011;873;47.696;8.068;2023-02-28T05:37:18;9.43;;;6.97;;
1751;SDS011;873;47.696;8.068;2023-02-28T05:39:43;10.00;;;6.83;;
1751;SDS011;873;47.696;8.068;2023-02-28T05:42:09;9.67;;;5.97;;
1751;SDS011;873;47.696;8.068;2023-02-28T05:44:35;9.53;;;6.33;;
1751;SDS011;873;47.696;8.068;2023-02-28T05:47:01;8.48;;;6.82;;
1751;SDS011;873;47.696;8.068;2023-02-28T05:49:27;10.32;;;6.82;;
1751;SDS011;873;47.696;8.068;2023-02-28T05:51:52;10.50;;;6.87;;
1751;SDS011;873;47.696;8.068;2023-02-28T05:54:18;9.63;;;6.67;;
1751;SDS011;873;47.696;8.068;2023-02-28T05:56:43;8.20;;;6.40;;
1751;SDS011;873;47.696;8.068;2023-02-28T05:59:11;9.43;;;6.13;;
1751;SDS011;873;47.696;8.068;2023-02-28T06:01:39;8.95;;;6.40;;
1751;SDS011;873;47.696;8.068;2023-02-28T06:04:07;8.80;;;7.28;;
1751;SDS011;873;47.696;8.068;2023-02-28T06:06:34;9.93;;;7.18;;
1751;SDS011;873;47.696;8.068;2023-02-28T06:09:01;9.05;;;6.68;;
1751;SDS011;873;47.696;8.068;2023-02-28T06:11:27;10.83;;;7.03;;
1751;SDS011;873;47.696;8.068;2023-02-28T06:13:53;10.73;;;7.03;;
1751;SDS011;873;47.696;8.068;2023-02-28T06:16:20;13.00;;;7.38;;
1751;SDS011;873;47.696;8.068;2023-02-28T06:18:46;10.17;;;6.90;;
1751;SDS011;873;47.696;8.068;2023-02-28T06:21:12;12.27;;;7.03;;
1751;SDS011;873;47.696;8.068;2023-02-28T06:23:38;9.25;;;7.20;;
1751;SDS011;873;47.696;8.068;2023-02-28T06:26:04;11.13;;;6.73;;
1751;SDS011;873;47.696;8.068;2023-02-28T06:28:30;7.75;;;6.20;;
1751;SDS011;873;47.696;8.068;2023-02-28T06:30:55;11.67;;;7.33;;
1751;SDS011;873;47.696;8.068;2023-02-28T06:33:21;16.53;;;7.73;;
1751;SDS011;873;47.696;8.068;2023-02-28T06:35:47;8.87;;;7.43;;
1751;SDS011;873;47.696;8.068;2023-02-28T06:38:15;8.18;;;6.60;;
1751;SDS011;873;47.696;8.068;2023-02-28T06:40:40;12.10;;;7.93;;
1751;SDS011;873;47.696;8.068;2023-02-28T06:43:06;13.00;;;7.83;;
1751;SDS011;873;47.696;8.068;2023-02-28T06:45:32;7.97;;;6.70;;
1751;SDS011;873;47.696;8.068;2023-02-28T06:47:58;9.13;;;6.73;;
1751;SDS011;873;47.696;8.068;2023-02-28T06:50:25;9.30;;;7.50;;
1751;SDS011;873;47.696;8.068;2023-02-28T06:52:52;9.27;;;6.60;;
1751;SDS011;873;47.696;8.068;2023-02-28T06:55:19;11.63;;;7.03;;
1751;SDS011;873;47.696;8.068;2023-02-28T06:57:44;10.57;;;7.40;;
1751;SDS011;873;47.696;8.068;2023-02-28T07:00:10;9.00;;;7.17;;
1751;SDS011;873;47.696;8.068;2023-02-28T07:02:37;10.75;;;7.22;;
1751;SDS011;873;47.696;8.068;2023-02-28T07:05:03;11.43;;;7.17;;
1751;SDS011;873;47.696;8.068;2023-02-28T07:07:29;10.23;;;7.63;;
1751;SDS011;873;47.696;8.068;2023-02-28T07:09:55;9.43;;;6.60;;
1751;SDS011;873;47.696;8.068;2023-02-28T07:12:21;10.05;;;7.45;;
1751;SDS011;873;47.696;8.068;2023-02-28T07:14:47;7.87;;;6.87;;
1751;SDS011;873;47.696;8.068;2023-02-28T07:17:12;10.70;;;7.07;;
1751;SDS011;873;47.696;8.068;2023-02-28T07:19:38;10.37;;;6.43;;
1751;SDS011;873;47.696;8.068;2023-02-28T07:22:04;12.68;;;8.02;;
1751;SDS011;873;47.696;8.068;2023-02-28T07:24:30;10.43;;;7.40;;
1751;SDS011;873;47.696;8.068;2023-02-28T07:26:56;9.10;;;6.73;;
1751;SDS011;873;47.696;8.068;2023-02-28T07:29:21;10.67;;;7.17;;
1751;SDS011;873;47.696;8.068;2023-02-28T07:31:47;9.50;;;7.37;;
1751;SDS011;873;47.696;8.068;2023-02-28T07:34:15;10.35;;;7.32;;
1751;SDS011;873;47.696;8.068;2023-02-28T07:36:40;9.60;;;7.80;;
1751;SDS011;873;47.696;8.068;2023-02-28T07:39:06;8.90;;;7.00;;
1751;SDS011;873;47.696;8.068;2023-02-28T07:41:31;15.40;;;8.67;;
1751;SDS011;873;47.696;8.068;2023-02-28T07:43:59;11.90;;;8.05;;
1751;SDS011;873;47.696;8.068;2023-02-28T07:46:24;8.80;;;7.10;;
1751;SDS011;873;47.696;8.068;2023-02-28T07:48:51;12.32;;;7.57;;
1751;SDS011;873;47.696;8.068;2023-02-28T07:51:17;10.57;;;7.85;;
1751;SDS011;873;47.696;8.068;2023-02-28T07:53:43;8.90;;;6.93;;
1751;SDS011;873;47.696;8.068;2023-02-28T07:56:09;12.33;;;7.30;;
1751;SDS011;873;47.696;8.068;2023-02-28T07:58:35;12.77;;;8.07;;
1751;SDS011;873;47.696;8.068;2023-02-28T08:01:09;10.70;;;7.77;;
1751;SDS011;873;47.696;8.068;2023-02-28T08:03:36;10.35;;;7.82;;
1751;SDS011;873;47.696;8.068;2023-02-28T08:06:03;10.15;;;7.07;;
1751;SDS011;873;47.696;8.068;2023-02-28T08:08:30;12.68;;;7.55;;
1751;SDS011;873;47.696;8.068;2023-02-28T08:11:00;10.27;;;8.05;;
1751;SDS011;873;47.696;8.068;2023-02-28T08:13:28;9.68;;;7.30;;
1751;SDS011;873;47.696;8.068;2023-02-28T08:15:54;11.18;;;7.70;;
1751;SDS011;873;47.696;8.068;2023-02-28T08:18:20;9.32;;;6.88;;
1751;SDS011;873;47.696;8.068;2023-02-28T08:20:47;10.32;;;6.88;;
1751;SDS011;873;47.696;8.068;2023-02-28T08:23:12;10.80;;;7.40;;
1751;SDS011;873;47.696;8.068;2023-02-28T08:25:38;11.87;;;7.90;;
1751;SDS011;873;47.696;8.068;2023-02-28T08:28:04;9.10;;;7.17;;
1751;SDS011;873;47.696;8.068;2023-02-28T08:30:29;9.57;;;7.53;;
1751;SDS011;873;47.696;8.068;2023-02-28T08:32:55;10.00;;;6.57;;
1751;SDS011;873;47.696;8.068;2023-02-28T08:35:21;11.67;;;7.40;;
1751;SDS011;873;47.696;8.068;2023-02-28T08:37:50;10.52;;;8.00;;
1751;SDS011;873;47.696;8.068;2023-02-28T08:40:16;12.10;;;7.80;;
1751;SDS011;873;47.696;8.068;2023-02-28T08:42:44;8.63;;;6.65;;
1751;SDS011;873;47.696;8.068;2023-02-28T08:45:11;10.70;;;7.93;;
1751;SDS011;873;47.696;8.068;2023-02-28T08:47:37;8.93;;;7.63;;
1751;SDS011;873;47.696;8.068;2023-02-28T08:50:03;12.07;;;7.83;;
1751;SDS011;873;47.696;8.068;2023-02-28T08:52:29;9.27;;;7.40;;
1751;SDS011;873;47.696;8.068;2023-02-28T08:54:55;12.53;;;7.47;;
1751;SDS011;873;47.696;8.068;2023-02-28T08:57:21;9.80;;;7.30;;
1751;SDS011;873;47.696;8.068;2023-02-28T08:59:46;12.40;;;7.93;;
1751;SDS011;873;47.696;8.068;2023-02-28T09:02:13;9.67;;;6.77;;
1751;SDS011;873;47.696;8.068;2023-02-28T09:04:39;12.20;;;7.47;;
1751;SDS011;873;47.696;8.068;2023-02-28T09:07:05;9.82;;;6.82;;
1751;SDS011;873;47.696;8.068;2023-02-28T09:09:31;10.50;;;7.53;;
1751;SDS011;873;47.696;8.068;2023-02-28T09:11:57;10.93;;;6.80;;
1751;SDS011;873;47.696;8.068;2023-02-28T09:14:22;10.73;;;7.50;;
1751;SDS011;873;47.696;8.068;2023-02-28T09:16:48;10.07;;;7.17;;
1751;SDS011;873;47.696;8.068;2023-02-28T09:19:14;8.23;;;6.80;;
1751;SDS011;873;47.696;8.068;2023-02-28T09:21:40;11.03;;;7.13;;
1751;SDS011;873;47.696;8.068;2023-02-28T09:24:06;10.47;;;7.03;;
1751;SDS011;873;47.696;8.068;2023-02-28T09:26:31;9.10;;;6.38;;
1751;SDS011;873;47.696;8.068;2023-02-28T09:28:59;8.27;;;6.40;;
1751;SDS011;873;47.696;8.068;2023-02-28T09:31:25;8.83;;;6.33;;
1751;SDS011;873;47.696;8.068;2023-02-28T09:33:54;8.95;;;6.57;;
1751;SDS011;873;47.696;8.068;2023-02-28T09:36:21;7.90;;;6.13;;
1751;SDS011;873;47.696;8.068;2023-02-28T09:38:48;8.68;;;6.30;;
1751;SDS011;873;47.696;8.068;2023-02-28T09:41:17;10.38;;;6.60;;
1751;SDS011;873;47.696;8.068;2023-02-28T09:43:47;11.00;;;6.60;;
1751;SDS011;873;47.696;8.068;2023-02-28T09:46:33;7.40;;;5.80;;
1751;SDS011;873;47.696;8.068;2023-02-28T09:49:04;10.98;;;7.43;;
1751;SDS011;873;47.696;8.068;2023-02-28T09:51:37;9.02;;;7.10;;
1751;SDS011;873;47.696;8.068;2023-02-28T09:54:19;9.23;;;6.18;;
1751;SDS011;873;47.696;8.068;2023-02-28T09:56:49;7.43;;;6.18;;
1751;SDS011;873;47.696;8.068;2023-02-28T09:59:20;8.02;;;6.22;;
1751;SDS011;873;47.696;8.068;2023-02-28T10:05:05;8.30;;;6.00;;
1751;SDS011;873;47.696;8.068;2023-02-28T10:13:19;8.05;;;6.35;;
1751;SDS011;873;47.696;8.068;2023-02-28T10:15:50;8.05;;;6.57;;
1751;SDS011;873;47.696;8.068;2023-02-28T10:18:19;8.32;;;6.30;;
1751;SDS011;873;47.696;8.068;2023-02-28T10:20:48;7.68;;;6.88;;
1751;SDS011;873;47.696;8.068;2023-02-28T10:25:55;8.68;;;6.60;;
1751;SDS011;873;47.696;8.068;2023-02-28T10:28:24;8.02;;;6.68;;
1751;SDS011;873;47.696;8.068;2023-02-28T10:30:51;7.75;;;6.05;;
1751;SDS011;873;47.696;8.068;2023-02-28T10:33:19;6.93;;;6.22;;
1751;SDS011;873;47.696;8.068;2023-02-28T10:35:48;8.55;;;6.15;;
1751;SDS011;873;47.696;8.068;2023-02-28T10:38:16;7.05;;;5.60;;
1751;SDS011;873;47.696;8.068;2023-02-28T10:40:44;7.20;;;6.38;;
1751;SDS011;873;47.696;8.068;2023-02-28T10:51:13;7.15;;;6.07;;
1751;SDS011;873;47.696;8.068;2023-02-28T10:56:20;9.57;;;7.05;;
1751;SDS011;873;47.696;8.068;2023-02-28T11:07:00;10.55;;;7.07;;
1751;SDS011;873;47.696;8.068;2023-02-28T11:12:06;9.52;;;7.35;;
1751;SDS011;873;47.696;8.068;2023-02-28T11:14:36;10.15;;;7.15;;
1751;SDS011;873;47.696;8.068;2023-02-28T11:17:19;8.15;;;6.38;;
1751;SDS011;873;47.696;8.068;2023-02-28T11:19:47;9.90;;;6.85;;
1751;SDS011;873;47.696;8.068;2023-02-28T11:22:17;9.20;;;7.10;;
1751;SDS011;873;47.696;8.068;2023-02-28T11:24:47;9.82;;;8.30;;
1751;SDS011;873;47.696;8.068;2023-02-28T11:30:22;9.23;;;7.32;;
1751;SDS011;873;47.696;8.068;2023-02-28T11:32:49;11.30;;;8.18;;
1751;SDS011;873;47.696;8.068;2023-02-28T11:35:17;8.80;;;6.60;;
1751;SDS011;873;47.696;8.068;2023-02-28T11:37:47;10.65;;;8.10;;
1751;SDS011;873;47.696;8.068;2023-02-28T11:40:15;10.10;;;6.63;;
1751;SDS011;873;47.696;8.068;2023-02-28T11:48:22;11.98;;;8.25;;
1751;SDS011;873;47.696;8.068;2023-02-28T11:53:49;8.20;;;7.10;;
1751;SDS011;873;47.696;8.068;2023-02-28T12:27:42;12.52;;;7.95;;
1751;SDS011;873;47.696;8.068;2023-02-28T12:30:16;9.77;;;8.07;;
1751;SDS011;873;47.696;8.068;2023-02-28T12:33:10;11.93;;;7.80;;
1751;SDS011;873;47.696;8.068;2023-02-28T12:35:41;10.07;;;7.70;;
1751;SDS011;873;47.696;8.068;2023-02-28T12:38:14;10.07;;;7.53;;
1751;SDS011;873;47.696;8.068;2023-02-28T12:40:45;10.80;;;7.93;;
1751;SDS011;873;47.696;8.068;2023-02-28T12:43:15;9.50;;;7.67;;
1751;SDS011;873;47.696;8.068;2023-02-28T12:45:46;10.00;;;8.13;;
1751;SDS011;873;47.696;8.068;2023-02-28T12:48:15;12.13;;;7.85;;
1751;SDS011;873;47.696;8.068;2023-02-28T12:50:53;13.60;;;8.80;;
1751;SDS011;873;47.696;8.068;2023-02-28T12:53:24;12.20;;;9.07;;
1751;SDS011;873;47.696;8.068;2023-02-28T12:59:26;9.67;;;8.03;;
1751;SDS011;873;47.696;8.068;2023-02-28T13:02:33;12.10;;;8.75;;
1751;SDS011;873;47.696;8.068;2023-02-28T13:14:06;8.90;;;7.70;;
1751;SDS011;873;47.696;8.068;2023-02-28T13:19:35;11.23;;;8.37;;
1751;SDS011;873;47.696;8.068;2023-02-28T13:22:02;9.87;;;8.23;;
1751;SDS011;873;47.696;8.068;2023-02-28T13:24:36;10.87;;;8.47;;
1751;SDS011;873;47.696;8.068;2023-02-28T13:29:43;12.70;;;9.30;;
1751;SDS011;873;47.696;8.068;2023-02-28T13:37:47;10.60;;;8.83;;
1751;SDS011;873;47.696;8.068;2023-02-28T13:40:31;12.77;;;8.97;;
1751;SDS011;873;47.696;8.068;2023-02-28T13:43:07;10.13;;;8.27;;
1751;SDS011;873;47.696;8.068;2023-02-28T13:45:33;10.80;;;9.37;;
1751;SDS011;873;47.696;8.068;2023-02-28T13:48:19;12.77;;;9.90;;
1751;SDS011;873;47.696;8.068;2023-02-28T13:50:44;12.27;;;9.47;;
1751;SDS011;873;47.696;8.068;2023-02-28T13:55:57;11.30;;;7.83;;
1751;SDS011;873;47.696;8.068;2023-02-28T13:58:55;13.90;;;9.67;;
1751;SDS011;873;47.696;8.068;2023-02-28T14:01:31;10.33;;;8.70;;
1751;SDS011;873;47.696;8.068;2023-02-28T14:07:07;10.37;;;8.57;;
1751;SDS011;873;47.696;8.068;2023-02-28T14:09:34;11.33;;;8.30;;
1751;SDS011;873;47.696;8.068;2023-02-28T14:21:02;10.07;;;8.60;;
1751;SDS011;873;47.696;8.068;2023-02-28T14:23:39;12.37;;;8.80;;
1751;SDS011;873;47.696;8.068;2023-02-28T14:32:28;12.53;;;8.77;;
1751;SDS011;873;47.696;8.068;2023-02-28T14:37:38;14.48;;;9.43;;
1751;SDS011;873;47.696;8.068;2023-02-28T14:42:59;14.50;;;8.77;;
1751;SDS011;873;47.696;8.068;2023-02-28T14:45:29;11.73;;;8.83;;
1751;SDS011;873;47.696;8.068;2023-02-28T14:47:56;12.87;;;9.50;;
1751;SDS011;873;47.696;8.068;2023-02-28T14:50:25;11.57;;;9.07;;
1751;SDS011;873;47.696;8.068;2023-02-28T14:52:54;12.17;;;9.60;;
1751;SDS011;873;47.696;8.068;2023-02-28T14:55:23;12.83;;;9.27;;
1751;SDS011;873;47.696;8.068;2023-02-28T15:00:30;11.93;;;8.37;;
1751;SDS011;873;47.696;8.068;2023-02-28T15:02:58;14.20;;;9.67;;
1751;SDS011;873;47.696;8.068;2023-02-28T15:08:04;11.03;;;9.57;;
1751;SDS011;873;47.696;8.068;2023-02-28T15:10:31;12.23;;;9.27;;
1751;SDS011;873;47.696;8.068;2023-02-28T15:12:58;12.00;;;9.38;;
1751;SDS011;873;47.696;8.068;2023-02-28T15:15:27;14.20;;;9.80;;
1751;SDS011;873;47.696;8.068;2023-02-28T15:18:15;11.18;;;8.38;;
1751;SDS011;873;47.696;8.068;2023-02-28T15:20:47;11.57;;;8.63;;
1751;SDS011;873;47.696;8.068;2023-02-28T15:23:13;14.57;;;10.07;;
1751;SDS011;873;47.696;8.068;2023-02-28T15:25:40;12.00;;;9.50;;
1751;SDS011;873;47.696;8.068;2023-02-28T15:28:09;13.67;;;9.23;;
1751;SDS011;873;47.696;8.068;2023-02-28T15:30:49;10.68;;;9.25;;
1751;SDS011;873;47.696;8.068;2023-02-28T15:36:03;13.45;;;10.05;;
1751;SDS011;873;47.696;8.068;2023-02-28T15:38:33;12.35;;;9.38;;
1751;SDS011;873;47.696;8.068;2023-02-28T15:41:00;12.88;;;8.65;;
1751;SDS011;873;47.696;8.068;2023-02-28T15:43:27;12.00;;;9.00;;
1751;SDS011;873;47.696;8.068;2023-02-28T15:48:33;12.10;;;8.98;;
1751;SDS011;873;47.696;8.068;2023-02-28T15:51:05;13.30;;;8.90;;
1751;SDS011;873;47.696;8.068;2023-02-28T15:53:51;12.70;;;8.68;;
1751;SDS011;873;47.696;8.068;2023-02-28T15:56:26;13.15;;;8.93;;
1751;SDS011;873;47.696;8.068;2023-02-28T15:59:02;11.65;;;9.18;;
1751;SDS011;873;47.696;8.068;2023-02-28T16:01:32;14.93;;;9.25;;
1751;SDS011;873;47.696;8.068;2023-02-28T16:04:00;11.30;;;9.23;;
1751;SDS011;873;47.696;8.068;2023-02-28T16:06:43;12.32;;;9.60;;
1751;SDS011;873;47.696;8.068;2023-02-28T16:09:12;14.40;;;9.27;;
1751;SDS011;873;47.696;8.068;2023-02-28T16:11:41;13.55;;;9.68;;
1751;SDS011;873;47.696;8.068;2023-02-28T16:14:12;13.05;;;9.07;;
1751;SDS011;873;47.696;8.068;2023-02-28T16:16:42;12.70;;;9.48;;
1751;SDS011;873;47.696;8.068;2023-02-28T16:19:09;12.98;;;8.75;;
1751;SDS011;873;47.696;8.068;2023-02-28T16:21:34;11.63;;;9.07;;
1751;SDS011;873;47.696;8.068;2023-02-28T16:24:00;14.50;;;10.33;;
1751;SDS011;873;47.696;8.068;2023-02-28T16:26:26;12.50;;;8.90;;
1751;SDS011;873;47.696;8.068;2023-02-28T16:28:53;13.55;;;9.13;;
1751;SDS011;873;47.696;8.068;2023-02-28T16:31:19;13.52;;;10.00;;
1751;SDS011;873;47.696;8.068;2023-02-28T16:33:45;11.37;;;9.50;;
1751;SDS011;873;47.696;8.068;2023-02-28T16:36:13;15.35;;;9.63;;
1751;SDS011;873;47.696;8.068;2023-02-28T16:38:41;14.75;;;10.15;;
1751;SDS011;873;47.696;8.068;2023-02-28T16:41:07;12.60;;;9.23;;
1751;SDS011;873;47.696;8.068;2023-02-28T16:43:41;14.18;;;9.23;;
1751;SDS011;873;47.696;8.068;2023-02-28T16:46:08;13.57;;;10.07;;
1751;SDS011;873;47.696;8.068;2023-02-28T16:48:36;12.43;;;9.48;;
1751;SDS011;873;47.696;8.068;2023-02-28T16:51:02;12.30;;;8.60;;
1751;SDS011;873;47.696;8.068;2023-02-28T16:53:29;12.95;;;9.32;;
1751;SDS011;873;47.696;8.068;2023-02-28T16:55:55;12.33;;;9.73;;
1751;SDS011;873;47.696;8.068;2023-02-28T16:58:20;12.73;;;9.77;;
1751;SDS011;873;47.696;8.068;2023-02-28T17:00:48;16.35;;;10.45;;
1751;SDS011;873;47.696;8.068;2023-02-28T17:03:20;12.77;;;9.23;;
1751;SDS011;873;47.696;8.068;2023-02-28T17:05:48;13.85;;;9.13;;
1751;SDS011;873;47.696;8.068;2023-02-28T17:08:13;12.67;;;8.80;;
1751;SDS011;873;47.696;8.068;2023-02-28T17:10:39;12.27;;;10.10;;
1751;SDS011;873;47.696;8.068;2023-02-28T17:13:04;10.83;;;8.73;;
1751;SDS011;873;47.696;8.068;2023-02-28T17:15:32;14.95;;;9.90;;
1751;SDS011;873;47.696;8.068;2023-02-28T17:17:58;14.27;;;9.53;;
1751;SDS011;873;47.696;8.068;2023-02-28T17:20:24;14.23;;;10.23;;
1751;SDS011;873;47.696;8.068;2023-02-28T17:22:52;12.93;;;10.25;;
1751;SDS011;873;47.696;8.068;2023-02-28T17:25:18;14.90;;;10.35;;
1751;SDS011;873;47.696;8.068;2023-02-28T17:27:44;16.38;;;10.68;;
1751;SDS011;873;47.696;8.068;2023-02-28T17:32:47;19.15;;;10.30;;
1751;SDS011;873;47.696;8.068;2023-02-28T17:35:14;16.23;;;10.87;;
1751;SDS011;873;47.696;8.068;2023-02-28T17:37:40;15.45;;;10.07;;
1751;SDS011;873;47.696;8.068;2023-02-28T17:40:06;17.30;;;11.13;;
1751;SDS011;873;47.696;8.068;2023-02-28T17:42:35;15.32;;;11.07;;
1751;SDS011;873;47.696;8.068;2023-02-28T17:45:00;15.27;;;10.27;;
1751;SDS011;873;47.696;8.068;2023-02-28T17:47:27;15.32;;;10.32;;
1751;SDS011;873;47.696;8.068;2023-02-28T17:49:53;16.43;;;11.87;;
1751;SDS011;873;47.696;8.068;2023-02-28T17:52:18;20.03;;;11.87;;
1751;SDS011;873;47.696;8.068;2023-02-28T17:54:44;15.50;;;10.77;;
1751;SDS011;873;47.696;8.068;2023-02-28T17:57:12;17.10;;;10.83;;
1751;SDS011;873;47.696;8.068;2023-02-28T17:59:40;16.92;;;11.00;;
1751;SDS011;873;47.696;8.068;2023-02-28T18:02:07;17.25;;;11.65;;
1751;SDS011;873;47.696;8.068;2023-02-28T18:04:34;17.05;;;11.25;;
1751;SDS011;873;47.696;8.068;2023-02-28T18:06:59;16.30;;;11.10;;
1751;SDS011;873;47.696;8.068;2023-02-28T18:09:26;17.95;;;11.68;;
1751;SDS011;873;47.696;8.068;2023-02-28T18:11:53;17.40;;;12.03;;
1751;SDS011;873;47.696;8.068;2023-02-28T18:14:20;18.70;;;13.10;;
1751;SDS011;873;47.696;8.068;2023-02-28T18:16:48;20.35;;;12.70;;
1751;SDS011;873;47.696;8.068;2023-02-28T18:19:14;17.05;;;11.73;;
1751;SDS011;873;47.696;8.068;2023-02-28T18:21:42;20.67;;;13.02;;
1751;SDS011;873;47.696;8.068;2023-02-28T18:24:09;18.23;;;11.45;;
1751;SDS011;873;47.696;8.068;2023-02-28T18:26:36;17.75;;;12.98;;
1751;SDS011;873;47.696;8.068;2023-02-28T18:29:03;20.80;;;12.20;;
1751;SDS011;873;47.696;8.068;2023-02-28T18:31:31;22.20;;;13.38;;
1751;SDS011;873;47.696;8.068;2023-02-28T18:33:59;17.33;;;11.15;;